Time;durP1;ratioP1;P1;durP2;ratioP2;P2;SDS_P1;SDS_P2;PMS_P1;PMS_P2;Temp;Humidity;BMP_temperature;BMP_pressure;BME280_temperature;BME280_humidity;BME280_pressure;Samples;Min_cycle;Max_cycle;Signal;HPM_P1;HPM_P2
2023/04/23 00:00:20;;;;;;;7.40;4.63;;;;;;;;;;5112468;28;20062;-63
2023/04/23 00:02:48;;;;;;;5.68;4.38;;;;;;;;;;5112248;28;20019;-63
2023/04/23 00:05:15;;;;;;;9.30;4.72;;;;;;;;;;5112446;28;20040;-63
2023/04/23 00:07:41;;;;;;;3.97;3.58;;;;;;;;;;5112238;28;20028;-63
2023/04/23 00:10:08;;;;;;;7.75;4.57;;;;;;;;;;5111789;28;20093;-63
2023/04/23 00:12:34;;;;;;;5.95;4.65;;;;;;;;;;5112039;28;20011;-64
2023/04/23 00:15:01;;;;;;;7.93;4.50;;;;;;;;;;5112303;28;20049;-63
2023/04/23 00:17:27;;;;;;;4.78;3.92;;;;;;;;;;5112555;28;20035;-63
2023/04/23 00:19:53;;;;;;;6.60;4.07;;;;;;;;;;5111758;28;20028;-63
2023/04/23 00:22:22;;;;;;;5.28;4.30;;;;;;;;;;5112183;28;20031;-64
2023/04/23 00:24:48;;;;;;;4.15;3.60;;;;;;;;;;5111348;28;20036;-64
2023/04/23 00:27:14;;;;;;;5.00;4.00;;;;;;;;;;5112056;28;20403;-63
2023/04/23 00:29:40;;;;;;;5.28;3.72;;;;;;;;;;5111786;28;20030;-64
2023/04/23 00:32:06;;;;;;;5.55;4.38;;;;;;;;;;5111864;28;20471;-64
2023/04/23 00:34:32;;;;;;;4.60;3.75;;;;;;;;;;5111602;28;20026;-64
2023/04/23 00:36:58;;;;;;;5.70;4.75;;;;;;;;;;5112248;28;20028;-63
2023/04/23 00:39:24;;;;;;;4.55;3.80;;;;;;;;;;5111716;28;20024;-63
2023/04/23 00:41:50;;;;;;;5.32;4.15;;;;;;;;;;5111667;28;20100;-64
2023/04/23 00:44:16;;;;;;;5.78;4.20;;;;;;;;;;5111764;28;20062;-63
2023/04/23 00:46:43;;;;;;;5.30;4.38;;;;;;;;;;5111516;28;20027;-63
2023/04/23 00:49:09;;;;;;;5.75;4.28;;;;;;;;;;5111767;28;20030;-64
2023/04/23 00:51:35;;;;;;;5.00;4.10;;;;;;;;;;5111537;28;20055;-64
2023/04/23 00:54:01;;;;;;;4.63;3.70;;;;;;;;;;5110587;28;20054;-64
2023/04/23 00:56:27;;;;;;;5.72;4.00;;;;;;;;;;5111679;28;20019;-64
2023/04/23 00:58:54;;;;;;;5.43;3.70;;;;;;;;;;5111349;28;20065;-63
2023/04/23 01:01:20;;;;;;;4.88;3.85;;;;;;;;;;5110233;28;20039;-63
2023/04/23 01:03:51;;;;;;;5.28;4.15;;;;;;;;;;5111141;28;20420;-63
2023/04/23 01:06:17;;;;;;;4.50;3.70;;;;;;;;;;5111330;28;20079;-63
2023/04/23 01:08:44;;;;;;;4.65;3.72;;;;;;;;;;5110621;28;20063;-63
2023/04/23 01:11:13;;;;;;;4.97;3.70;;;;;;;;;;5111250;28;20373;-63
2023/04/23 01:13:39;;;;;;;4.38;3.40;;;;;;;;;;5110971;28;20153;-63
2023/04/23 01:16:05;;;;;;;5.38;3.83;;;;;;;;;;5111466;28;20065;-64
2023/04/23 01:18:31;;;;;;;4.68;3.90;;;;;;;;;;5109822;28;20027;-64
2023/04/23 01:20:57;;;;;;;5.25;4.00;;;;;;;;;;5111446;28;20037;-63
2023/04/23 01:23:23;;;;;;;5.38;3.55;;;;;;;;;;5110602;28;20114;-63
2023/04/23 01:25:49;;;;;;;4.35;3.50;;;;;;;;;;5110836;28;20226;-63
2023/04/23 01:28:15;;;;;;;4.45;3.47;;;;;;;;;;5111155;28;20098;-63
2023/04/23 01:30:42;;;;;;;5.13;3.88;;;;;;;;;;5111007;28;20031;-63
2023/04/23 01:33:09;;;;;;;5.50;3.55;;;;;;;;;;5111278;28;20103;-64
2023/04/23 01:35:36;;;;;;;4.95;3.67;;;;;;;;;;5110789;28;20488;-63
2023/04/23 01:38:03;;;;;;;5.53;3.35;;;;;;;;;;5110684;28;20445;-64
2023/04/23 01:40:29;;;;;;;4.43;3.40;;;;;;;;;;5111100;28;20085;-63
2023/04/23 01:42:56;;;;;;;3.83;3.38;;;;;;;;;;5111275;28;20027;-64
2023/04/23 01:45:22;;;;;;;4.57;3.58;;;;;;;;;;5111054;28;20039;-63
2023/04/23 01:47:48;;;;;;;4.63;3.72;;;;;;;;;;5110920;28;20035;-63
2023/04/23 01:50:14;;;;;;;4.68;3.90;;;;;;;;;;5111046;28;20028;-64
2023/04/23 01:52:41;;;;;;;5.80;4.10;;;;;;;;;;5110297;28;20066;-63
2023/04/23 01:55:07;;;;;;;4.80;3.70;;;;;;;;;;5110758;28;20098;-64
2023/04/23 01:57:34;;;;;;;4.70;3.55;;;;;;;;;;5110686;28;20032;-63
2023/04/23 02:00:07;;;;;;;4.60;4.00;;;;;;;;;;5109628;28;20016;-64
2023/04/23 02:02:34;;;;;;;4.50;3.13;;;;;;;;;;5110870;28;20025;-64
2023/04/23 02:05:04;;;;;;;4.10;3.38;;;;;;;;;;5110893;28;20037;-64
2023/04/23 02:07:33;;;;;;;4.70;3.70;;;;;;;;;;5113333;28;20020;-63
2023/04/23 02:10:01;;;;;;;3.83;3.25;;;;;;;;;;5114646;28;20084;-63
2023/04/23 02:12:27;;;;;;;5.88;3.88;;;;;;;;;;5114842;27;20039;-63
2023/04/23 02:14:53;;;;;;;5.28;3.30;;;;;;;;;;5114231;28;20467;-63
2023/04/23 02:17:21;;;;;;;3.95;3.47;;;;;;;;;;5114431;28;20023;-63
2023/04/23 02:19:47;;;;;;;4.07;3.35;;;;;;;;;;5113848;28;20040;-63
2023/04/23 02:22:14;;;;;;;4.80;3.30;;;;;;;;;;5113825;28;20126;-64
2023/04/23 02:24:40;;;;;;;4.47;3.60;;;;;;;;;;5114077;28;20043;-63
2023/04/23 02:27:07;;;;;;;6.03;3.22;;;;;;;;;;5114244;28;20080;-64
2023/04/23 02:29:33;;;;;;;4.32;3.42;;;;;;;;;;5114112;28;20027;-63
2023/04/23 02:31:59;;;;;;;4.15;3.38;;;;;;;;;;5114163;28;20399;-64
2023/04/23 02:34:25;;;;;;;5.55;3.78;;;;;;;;;;5114822;28;20429;-63
2023/04/23 02:36:51;;;;;;;4.35;3.28;;;;;;;;;;5113846;28;20073;-63
2023/04/23 02:39:17;;;;;;;3.70;3.03;;;;;;;;;;5114223;28;20024;-64
2023/04/23 02:41:43;;;;;;;3.50;2.83;;;;;;;;;;5113365;27;20027;-64
2023/04/23 02:44:09;;;;;;;3.95;3.50;;;;;;;;;;5113916;28;20437;-63
2023/04/23 02:46:36;;;;;;;4.22;3.10;;;;;;;;;;5113734;28;20035;-64
2023/04/23 02:49:02;;;;;;;4.75;3.30;;;;;;;;;;5113764;28;20079;-63
2023/04/23 02:51:28;;;;;;;3.85;3.20;;;;;;;;;;5113921;28;20027;-63
2023/04/23 02:53:54;;;;;;;3.83;3.05;;;;;;;;;;5113363;28;20073;-63
2023/04/23 02:56:20;;;;;;;5.00;3.30;;;;;;;;;;5113680;28;20102;-63
2023/04/23 02:58:46;;;;;;;5.00;3.25;;;;;;;;;;5113327;28;20031;-63
2023/04/23 03:01:12;;;;;;;4.07;2.90;;;;;;;;;;5113622;28;20031;-64
2023/04/23 03:03:39;;;;;;;3.78;2.63;;;;;;;;;;5113228;28;20034;-64
2023/04/23 03:06:05;;;;;;;3.72;2.83;;;;;;;;;;5113047;28;20032;-64
2023/04/23 03:08:31;;;;;;;4.25;3.10;;;;;;;;;;5113268;28;20144;-64
2023/04/23 03:10:57;;;;;;;3.78;2.80;;;;;;;;;;5113654;28;20016;-63
2023/04/23 03:13:24;;;;;;;4.40;2.85;;;;;;;;;;5113467;28;20027;-64
2023/04/23 03:15:50;;;;;;;4.20;3.15;;;;;;;;;;5113106;28;20058;-63
2023/04/23 03:18:16;;;;;;;4.13;2.55;;;;;;;;;;5112265;28;20058;-63
2023/04/23 03:20:42;;;;;;;3.42;2.50;;;;;;;;;;5112498;28;20066;-63
2023/04/23 03:23:08;;;;;;;3.90;2.95;;;;;;;;;;5113154;28;20032;-63
2023/04/23 03:25:35;;;;;;;5.45;2.83;;;;;;;;;;5111573;28;20436;-63
2023/04/23 03:28:01;;;;;;;3.25;2.50;;;;;;;;;;5113026;28;20047;-63
2023/04/23 03:30:27;;;;;;;4.28;2.80;;;;;;;;;;5113034;28;20066;-64
2023/04/23 03:32:55;;;;;;;3.38;2.80;;;;;;;;;;5112627;28;20024;-64
2023/04/23 03:35:21;;;;;;;3.50;2.75;;;;;;;;;;5112509;28;20027;-64
2023/04/23 03:37:47;;;;;;;3.35;2.50;;;;;;;;;;5112962;28;20027;-63
2023/04/23 03:40:13;;;;;;;3.22;2.33;;;;;;;;;;5112842;28;20352;-63
2023/04/23 03:42:39;;;;;;;4.38;2.90;;;;;;;;;;5112570;28;20030;-63
2023/04/23 03:45:06;;;;;;;4.00;3.00;;;;;;;;;;5112658;28;20039;-63
2023/04/23 03:47:32;;;;;;;3.42;2.75;;;;;;;;;;5112028;28;20460;-63
2023/04/23 03:49:58;;;;;;;3.55;2.40;;;;;;;;;;5112926;28;20032;-63
2023/04/23 03:52:24;;;;;;;3.33;2.03;;;;;;;;;;5112400;28;20016;-64
2023/04/23 03:54:50;;;;;;;4.63;2.70;;;;;;;;;;5112713;28;20494;-64
2023/04/23 03:57:16;;;;;;;3.35;2.55;;;;;;;;;;5112522;28;20035;-64
2023/04/23 03:59:42;;;;;;;2.88;2.45;;;;;;;;;;5112100;28;20032;-63
2023/04/23 04:02:08;;;;;;;2.60;2.40;;;;;;;;;;5112191;28;20108;-63
2023/04/23 04:04:35;;;;;;;3.70;2.30;;;;;;;;;;5111886;28;20042;-63
2023/04/23 04:07:01;;;;;;;3.55;2.28;;;;;;;;;;5112556;27;20074;-64
2023/04/23 04:09:27;;;;;;;3.70;2.63;;;;;;;;;;5112278;28;20456;-63
2023/04/23 04:11:53;;;;;;;3.28;2.38;;;;;;;;;;5112231;28;20024;-64
2023/04/23 04:14:20;;;;;;;3.05;2.67;;;;;;;;;;5112194;28;20031;-63
2023/04/23 04:16:46;;;;;;;2.65;2.20;;;;;;;;;;5111910;28;20023;-64
2023/04/23 04:19:12;;;;;;;2.63;2.17;;;;;;;;;;5111385;28;20068;-63
2023/04/23 04:21:38;;;;;;;3.67;2.00;;;;;;;;;;5111541;28;20032;-63
2023/04/23 04:24:04;;;;;;;4.47;2.25;;;;;;;;;;5111958;28;20070;-63
2023/04/23 04:26:33;;;;;;;4.95;2.40;;;;;;;;;;5111921;28;20020;-63
2023/04/23 04:29:00;;;;;;;3.85;2.35;;;;;;;;;;5112033;28;20106;-63
2023/04/23 04:31:27;;;;;;;2.72;1.85;;;;;;;;;;5111041;28;20023;-63
2023/04/23 04:33:54;;;;;;;2.50;1.90;;;;;;;;;;5111952;28;20441;-63
2023/04/23 04:36:20;;;;;;;4.03;2.33;;;;;;;;;;5111898;28;20088;-63
2023/04/23 04:38:46;;;;;;;2.70;2.28;;;;;;;;;;5111725;28;20027;-63
2023/04/23 04:41:12;;;;;;;3.00;2.10;;;;;;;;;;5111785;28;20058;-63
2023/04/23 04:43:40;;;;;;;3.03;1.95;;;;;;;;;;5111419;28;20045;-63
2023/04/23 04:46:06;;;;;;;2.78;1.83;;;;;;;;;;5109779;28;20441;-63
2023/04/23 04:48:32;;;;;;;3.15;2.13;;;;;;;;;;5111544;28;20027;-63
2023/04/23 04:50:58;;;;;;;2.38;1.75;;;;;;;;;;5112116;28;20027;-63
2023/04/23 04:53:24;;;;;;;4.80;2.72;;;;;;;;;;5111268;28;20047;-64
2023/04/23 04:55:50;;;;;;;6.13;2.33;;;;;;;;;;5111507;28;20062;-64
2023/04/23 04:58:16;;;;;;;2.05;1.67;;;;;;;;;;5111431;28;20028;-64
2023/04/23 05:00:43;;;;;;;3.35;1.90;;;;;;;;;;5109527;28;20464;-64
2023/04/23 05:03:09;;;;;;;2.42;1.60;;;;;;;;;;5111554;28;20395;-64
2023/04/23 05:05:35;;;;;;;2.90;1.80;;;;;;;;;;5111053;28;20032;-63
2023/04/23 05:08:01;;;;;;;3.15;2.03;;;;;;;;;;5111323;28;20027;-64
2023/04/23 05:10:28;;;;;;;3.70;1.98;;;;;;;;;;5111098;28;20368;-64
2023/04/23 05:12:54;;;;;;;3.38;2.10;;;;;;;;;;5111212;28;20055;-64
2023/04/23 05:15:20;;;;;;;3.17;1.88;;;;;;;;;;5111226;28;20024;-64
2023/04/23 05:17:46;;;;;;;3.53;2.10;;;;;;;;;;5109994;28;20024;-64
2023/04/23 05:20:13;;;;;;;3.55;2.10;;;;;;;;;;5111176;28;20388;-64
2023/04/23 05:22:40;;;;;;;3.95;1.75;;;;;;;;;;5110557;28;20043;-64
2023/04/23 05:25:07;;;;;;;5.65;2.15;;;;;;;;;;5111063;28;20040;-64
2023/04/23 05:27:33;;;;;;;3.63;1.77;;;;;;;;;;5111269;28;20098;-63
2023/04/23 05:30:00;;;;;;;2.28;1.45;;;;;;;;;;5111398;28;20038;-63
2023/04/23 05:32:26;;;;;;;3.58;2.00;;;;;;;;;;5110656;28;20031;-63
2023/04/23 05:34:52;;;;;;;4.47;2.17;;;;;;;;;;5111147;28;20024;-64
2023/04/23 05:37:18;;;;;;;2.42;1.58;;;;;;;;;;5111242;28;20102;-64
2023/04/23 05:39:44;;;;;;;2.25;1.70;;;;;;;;;;5111134;28;20352;-64
2023/04/23 05:42:11;;;;;;;3.78;2.25;;;;;;;;;;5114301;28;20035;-64
2023/04/23 05:44:37;;;;;;;2.40;1.80;;;;;;;;;;5114722;28;20024;-64
2023/04/23 05:47:04;;;;;;;2.55;1.70;;;;;;;;;;5114328;28;20057;-64
2023/04/23 05:49:30;;;;;;;2.63;2.00;;;;;;;;;;5114920;28;20016;-64
2023/04/23 05:51:58;;;;;;;4.28;1.95;;;;;;;;;;5114396;27;20035;-64
2023/04/23 05:54:24;;;;;;;3.17;1.90;;;;;;;;;;5114678;28;20019;-64
2023/04/23 05:56:50;;;;;;;2.70;1.70;;;;;;;;;;5114726;27;20062;-64
2023/04/23 05:59:16;;;;;;;3.72;2.20;;;;;;;;;;5114872;28;20051;-64
2023/04/23 06:01:42;;;;;;;2.17;1.45;;;;;;;;;;5114619;28;20031;-63
2023/04/23 06:04:08;;;;;;;3.10;1.98;;;;;;;;;;5113335;28;20475;-62
2023/04/23 06:06:34;;;;;;;4.55;1.98;;;;;;;;;;5114142;28;20483;-63
2023/04/23 06:09:00;;;;;;;3.47;2.10;;;;;;;;;;5114674;28;20067;-64
2023/04/23 06:11:26;;;;;;;5.15;1.80;;;;;;;;;;5114232;28;20452;-64
2023/04/23 06:13:52;;;;;;;3.60;1.75;;;;;;;;;;5114348;27;20047;-64
2023/04/23 06:16:18;;;;;;;2.60;2.00;;;;;;;;;;5113983;28;20058;-62
2023/04/23 06:18:44;;;;;;;4.78;1.83;;;;;;;;;;5113956;27;20417;-63
2023/04/23 06:21:10;;;;;;;2.90;1.85;;;;;;;;;;5114060;28;20036;-62
2023/04/23 06:23:36;;;;;;;3.85;2.08;;;;;;;;;;5114219;28;20507;-64
2023/04/23 06:26:03;;;;;;;3.50;1.80;;;;;;;;;;5114529;28;20407;-64
2023/04/23 06:28:29;;;;;;;3.33;1.60;;;;;;;;;;5114212;28;20027;-64
2023/04/23 06:30:55;;;;;;;1.88;1.60;;;;;;;;;;5114339;28;20028;-64
2023/04/23 06:33:21;;;;;;;3.30;1.60;;;;;;;;;;5113954;28;20467;-64
2023/04/23 06:35:47;;;;;;;4.53;1.90;;;;;;;;;;5113576;28;20027;-62
2023/04/23 06:38:13;;;;;;;3.17;1.92;;;;;;;;;;5113435;28;20502;-62
2023/04/23 06:40:39;;;;;;;3.53;1.92;;;;;;;;;;5113884;28;20034;-62
2023/04/23 06:43:06;;;;;;;3.15;1.70;;;;;;;;;;5114608;28;20020;-62
2023/04/23 06:45:32;;;;;;;3.15;1.60;;;;;;;;;;5114218;27;20040;-62
2023/04/23 06:47:59;;;;;;;3.25;1.83;;;;;;;;;;5114174;27;20441;-63
2023/04/23 06:50:25;;;;;;;2.92;2.03;;;;;;;;;;5113858;28;20055;-62
2023/04/23 06:52:52;;;;;;;3.38;1.80;;;;;;;;;;5113344;28;20028;-62
2023/04/23 06:55:18;;;;;;;2.80;2.03;;;;;;;;;;5114280;28;20365;-62
2023/04/23 06:57:44;;;;;;;2.95;1.80;;;;;;;;;;5113623;28;20045;-62
2023/04/23 07:00:10;;;;;;;3.28;2.13;;;;;;;;;;5113883;28;20031;-62
2023/04/23 07:02:37;;;;;;;3.33;1.75;;;;;;;;;;5113899;27;20515;-62
2023/04/23 07:05:03;;;;;;;3.45;1.60;;;;;;;;;;5113780;28;20032;-63
2023/04/23 07:07:29;;;;;;;3.88;1.67;;;;;;;;;;5112865;28;20047;-62
2023/04/23 07:09:55;;;;;;;2.88;1.58;;;;;;;;;;5113625;28;20031;-62
2023/04/23 07:12:21;;;;;;;2.85;1.70;;;;;;;;;;5113527;28;20024;-62
2023/04/23 07:14:47;;;;;;;3.10;1.50;;;;;;;;;;5113432;27;20544;-62
2023/04/23 07:17:13;;;;;;;4.20;1.80;;;;;;;;;;5112734;28;20041;-62
2023/04/23 07:19:39;;;;;;;4.45;1.90;;;;;;;;;;5113168;27;20030;-62
2023/04/23 07:22:05;;;;;;;4.60;1.67;;;;;;;;;;5113353;28;20024;-62
2023/04/23 07:24:31;;;;;;;3.97;1.80;;;;;;;;;;5112308;28;20039;-62
2023/04/23 07:26:58;;;;;;;3.22;1.55;;;;;;;;;;5113374;28;20049;-62
2023/04/23 07:29:24;;;;;;;4.25;1.70;;;;;;;;;;5113123;28;20084;-62
2023/04/23 07:31:50;;;;;;;2.45;1.63;;;;;;;;;;5113308;28;20023;-62
2023/04/23 07:34:16;;;;;;;4.13;1.40;;;;;;;;;;5113143;28;20051;-62
2023/04/23 07:36:42;;;;;;;3.20;1.60;;;;;;;;;;5112977;28;20070;-62
2023/04/23 07:39:08;;;;;;;4.50;1.60;;;;;;;;;;5113317;28;20030;-62
2023/04/23 07:41:34;;;;;;;3.30;1.77;;;;;;;;;;5110776;28;20509;-61
2023/04/23 07:44:00;;;;;;;6.05;2.08;;;;;;;;;;5111344;28;20081;-61
2023/04/23 07:46:26;;;;;;;4.03;1.65;;;;;;;;;;5112126;28;20500;-62
2023/04/23 07:48:52;;;;;;;4.10;1.85;;;;;;;;;;5112993;27;20100;-61
2023/04/23 07:51:18;;;;;;;3.47;1.60;;;;;;;;;;5112545;28;20399;-61
2023/04/23 07:53:45;;;;;;;4.78;1.80;;;;;;;;;;5111982;28;20028;-61
2023/04/23 07:56:11;;;;;;;4.15;1.90;;;;;;;;;;5110557;28;20027;-61
2023/04/23 07:58:37;;;;;;;3.38;1.58;;;;;;;;;;5112180;28;20483;-61
2023/04/23 08:01:03;;;;;;;4.03;1.60;;;;;;;;;;5111879;28;20030;-61
2023/04/23 08:03:29;;;;;;;4.63;1.50;;;;;;;;;;5111927;28;20020;-63
2023/04/23 08:05:56;;;;;;;2.80;1.30;;;;;;;;;;5112334;28;20114;-63
2023/04/23 08:08:22;;;;;;;2.80;1.52;;;;;;;;;;5111189;28;20044;-63
2023/04/23 08:10:48;;;;;;;5.85;1.45;;;;;;;;;;5111362;28;20059;-63
2023/04/23 08:13:14;;;;;;;3.90;1.52;;;;;;;;;;5111920;28;20027;-63
2023/04/23 08:15:40;;;;;;;5.60;1.90;;;;;;;;;;5097039;28;20039;-63
2023/04/23 08:18:06;;;;;;;3.53;1.60;;;;;;;;;;5111111;28;20020;-62
2023/04/23 08:20:32;;;;;;;2.95;1.48;;;;;;;;;;5108712;28;20139;-63
2023/04/23 08:22:58;;;;;;;3.22;1.55;;;;;;;;;;5108872;28;20454;-63
2023/04/23 08:25:24;;;;;;;7.90;1.65;;;;;;;;;;5110638;28;20043;-63
2023/04/23 08:27:50;;;;;;;7.88;2.13;;;;;;;;;;5111800;28;20020;-63
2023/04/23 08:30:16;;;;;;;3.78;1.60;;;;;;;;;;5111057;28;20027;-64
2023/04/23 08:32:42;;;;;;;6.88;1.98;;;;;;;;;;5111352;28;20023;-63
2023/04/23 08:35:09;;;;;;;4.53;1.73;;;;;;;;;;5112227;28;20502;-63
2023/04/23 08:37:35;;;;;;;8.35;1.75;;;;;;;;;;5108751;28;20491;-64
2023/04/23 08:40:01;;;;;;;5.22;1.90;;;;;;;;;;5107956;28;20031;-64
2023/04/23 08:42:35;;;;;;;5.40;1.90;;;;;;;;;;5106860;28;20024;-62
2023/04/23 08:45:02;;;;;;;5.82;2.08;;;;;;;;;;5105739;28;20615;-62
2023/04/23 08:47:29;;;;;;;7.90;2.25;;;;;;;;;;5106432;28;20399;-62
2023/04/23 08:49:58;;;;;;;6.28;1.92;;;;;;;;;;5106177;28;20020;-62
2023/04/23 08:52:25;;;;;;;6.30;1.77;;;;;;;;;;5105615;28;20072;-62
2023/04/23 08:54:53;;;;;;;7.82;2.83;;;;;;;;;;5107101;28;20023;-63
2023/04/23 08:57:20;;;;;;;8.23;1.88;;;;;;;;;;5107556;28;20444;-62
2023/04/23 08:59:46;;;;;;;6.15;2.08;;;;;;;;;;5108735;28;20030;-62
2023/04/23 09:02:14;;;;;;;6.45;1.67;;;;;;;;;;5107987;28;20061;-62
2023/04/23 09:04:40;;;;;;;7.45;2.88;;;;;;;;;;5106702;28;20046;-62
2023/04/23 09:07:12;;;;;;;13.05;2.15;;;;;;;;;;5106967;28;20031;-62
2023/04/23 09:09:39;;;;;;;7.55;2.90;;;;;;;;;;5111269;28;20050;-63
2023/04/23 09:12:08;;;;;;;10.40;3.50;;;;;;;;;;5110743;28;20031;-61
2023/04/23 09:14:35;;;;;;;7.82;3.10;;;;;;;;;;5106824;28;20617;-61
2023/04/23 09:17:02;;;;;;;5.63;2.70;;;;;;;;;;5110433;28;20583;-61
2023/04/23 09:19:28;;;;;;;8.52;3.20;;;;;;;;;;5114266;28;20035;-61
2023/04/23 09:21:54;;;;;;;9.63;2.83;;;;;;;;;;5115596;28;20027;-62
2023/04/23 09:24:24;;;;;;;15.88;4.50;;;;;;;;;;5115403;28;20380;-61
2023/04/23 09:26:50;;;;;;;8.18;3.35;;;;;;;;;;5114598;28;20020;-61
2023/04/23 09:29:22;;;;;;;12.80;3.63;;;;;;;;;;5110944;28;20028;-61
2023/04/23 09:31:49;;;;;;;17.02;4.03;;;;;;;;;;5110993;28;20038;-63
2023/04/23 09:34:19;;;;;;;14.15;4.35;;;;;;;;;;5111437;28;20107;-61
2023/04/23 09:36:45;;;;;;;13.18;4.43;;;;;;;;;;5112209;28;20024;-62
2023/04/23 09:39:15;;;;;;;12.30;4.13;;;;;;;;;;5111704;27;20031;-62
2023/04/23 09:41:41;;;;;;;18.02;4.25;;;;;;;;;;5113581;28;20534;-63
2023/04/23 09:44:08;;;;;;;11.38;3.72;;;;;;;;;;5114271;28;20495;-66
2023/04/23 09:46:33;;;;;;;15.68;4.10;;;;;;;;;;5114815;28;20059;-63
2023/04/23 09:49:04;;;;;;;16.23;3.40;;;;;;;;;;5113901;28;20439;-63
2023/04/23 09:51:30;;;;;;;13.45;3.58;;;;;;;;;;5114421;28;20556;-63
2023/04/23 09:53:57;;;;;;;15.75;3.78;;;;;;;;;;5114972;28;20076;-64
2023/04/23 09:56:24;;;;;;;10.93;4.15;;;;;;;;;;5114551;28;20388;-64
2023/04/23 09:58:50;;;;;;;9.65;3.28;;;;;;;;;;5114187;28;20106;-66
2023/04/23 10:01:16;;;;;;;8.07;3.45;;;;;;;;;;5111656;28;20119;-64
2023/04/23 10:03:42;;;;;;;16.77;3.45;;;;;;;;;;5113755;28;20042;-61
2023/04/23 10:06:14;;;;;;;17.45;3.17;;;;;;;;;;5113414;28;20036;-60
2023/04/23 10:08:40;;;;;;;10.38;3.03;;;;;;;;;;5113237;28;20543;-60
2023/04/23 10:11:06;;;;;;;11.50;3.10;;;;;;;;;;5113423;28;20027;-61
2023/04/23 10:13:34;;;;;;;11.88;3.38;;;;;;;;;;5114525;28;20479;-62
2023/04/23 10:16:01;;;;;;;11.60;3.28;;;;;;;;;;5114421;27;20153;-63
2023/04/23 10:18:30;;;;;;;11.20;3.25;;;;;;;;;;5113861;28;20024;-62
2023/04/23 10:20:57;;;;;;;14.13;3.47;;;;;;;;;;5113918;28;20046;-62
2023/04/23 10:23:23;;;;;;;11.65;3.78;;;;;;;;;;5114000;28;20146;-66
2023/04/23 10:25:52;;;;;;;12.70;2.95;;;;;;;;;;5114116;28;20088;-59
2023/04/23 10:28:25;;;;;;;17.52;3.35;;;;;;;;;;5113863;28;20024;-60
2023/04/23 10:30:52;;;;;;;16.58;3.50;;;;;;;;;;5113687;28;20031;-61
2023/04/23 10:33:18;;;;;;;12.85;2.78;;;;;;;;;;5113261;28;20026;-58
2023/04/23 10:35:44;;;;;;;10.75;3.22;;;;;;;;;;5113477;28;20032;-60
2023/04/23 10:38:10;;;;;;;14.70;2.75;;;;;;;;;;5114152;28;20107;-62
2023/04/23 10:40:38;;;;;;;16.25;2.85;;;;;;;;;;5114009;28;20028;-62
2023/04/23 10:43:04;;;;;;;11.18;2.25;;;;;;;;;;5113536;28;20057;-62
2023/04/23 10:45:31;;;;;;;8.55;3.17;;;;;;;;;;5113380;28;20066;-61
2023/04/23 10:47:58;;;;;;;17.25;3.20;;;;;;;;;;5111357;28;20599;-61
2023/04/23 10:50:28;;;;;;;9.57;2.55;;;;;;;;;;5112897;28;20024;-61
2023/04/23 10:52:55;;;;;;;7.18;2.50;;;;;;;;;;5113603;28;20026;-61
2023/04/23 10:55:27;;;;;;;8.10;2.72;;;;;;;;;;5112649;28;20388;-63
2023/04/23 10:57:59;;;;;;;11.50;2.42;;;;;;;;;;5113935;28;20027;-62
2023/04/23 11:00:26;;;;;;;9.20;2.70;;;;;;;;;;5113584;27;20047;-61
2023/04/23 11:02:52;;;;;;;10.18;2.70;;;;;;;;;;5113533;28;20027;-61
2023/04/23 11:05:18;;;;;;;10.80;2.47;;;;;;;;;;5112166;28;20070;-65
2023/04/23 11:08:04;;;;;;;6.82;2.47;;;;;;;;;;5111997;28;20031;-62
2023/04/23 11:10:31;;;;;;;13.10;2.67;;;;;;;;;;5113510;28;20491;-64
2023/04/23 11:12:57;;;;;;;7.97;2.20;;;;;;;;;;5112723;28;20383;-63
2023/04/23 11:15:23;;;;;;;9.60;2.40;;;;;;;;;;5112611;28;20030;-61
2023/04/23 11:17:52;;;;;;;8.38;2.45;;;;;;;;;;5112441;28;20499;-63
2023/04/23 11:20:19;;;;;;;12.95;2.55;;;;;;;;;;5112004;28;20035;-62
2023/04/23 11:22:46;;;;;;;10.00;2.45;;;;;;;;;;5112800;28;20032;-63
2023/04/23 11:25:19;;;;;;;8.90;2.88;;;;;;;;;;5113635;28;20043;-63
2023/04/23 11:27:46;;;;;;;6.90;2.03;;;;;;;;;;5111313;28;20399;-63
2023/04/23 11:30:16;;;;;;;10.75;2.65;;;;;;;;;;5112909;28;20134;-62
2023/04/23 11:32:49;;;;;;;12.40;2.55;;;;;;;;;;5113206;28;20020;-62
2023/04/23 11:35:16;;;;;;;8.93;2.25;;;;;;;;;;5111159;28;20432;-62
2023/04/23 11:37:44;;;;;;;9.43;3.00;;;;;;;;;;5113040;28;20020;-60
2023/04/23 11:40:12;;;;;;;8.50;2.75;;;;;;;;;;5111953;28;20031;-64
2023/04/23 11:42:48;;;;;;;9.60;2.20;;;;;;;;;;5111467;28;20035;-63
2023/04/23 11:45:17;;;;;;;14.93;2.60;;;;;;;;;;5109131;28;20032;-60
2023/04/23 11:47:44;;;;;;;8.25;2.55;;;;;;;;;;5108734;28;20030;-62
2023/04/23 11:50:11;;;;;;;6.72;2.40;;;;;;;;;;5111142;28;20039;-60
2023/04/23 11:52:37;;;;;;;7.95;2.10;;;;;;;;;;5110688;28;20032;-62
2023/04/23 11:55:05;;;;;;;5.75;2.10;;;;;;;;;;5107341;28;20043;-62
2023/04/23 11:57:34;;;;;;;5.80;2.05;;;;;;;;;;5112337;28;20023;-61
2023/04/23 12:00:02;;;;;;;8.10;2.03;;;;;;;;;;5112547;28;20099;-61
2023/04/23 12:02:28;;;;;;;7.57;2.33;;;;;;;;;;5111987;28;20111;-61
2023/04/23 12:04:54;;;;;;;5.93;1.98;;;;;;;;;;5111631;28;20575;-64
2023/04/23 12:07:30;;;;;;;7.55;2.15;;;;;;;;;;5111482;28;20110;-60
2023/04/23 12:09:59;;;;;;;6.68;2.47;;;;;;;;;;5108758;28;20458;-60
2023/04/23 12:12:32;;;;;;;6.25;1.80;;;;;;;;;;5111228;28;20119;-62
2023/04/23 12:15:08;;;;;;;5.72;2.25;;;;;;;;;;5111092;28;20012;-61
2023/04/23 12:17:34;;;;;;;7.53;2.28;;;;;;;;;;5112093;28;20042;-62
2023/04/23 12:20:03;;;;;;;6.93;1.77;;;;;;;;;;5112142;28;20050;-61
2023/04/23 12:22:29;;;;;;;4.93;1.63;;;;;;;;;;5111426;28;20071;-61
2023/04/23 12:24:57;;;;;;;6.40;2.30;;;;;;;;;;5110440;28;20491;-63
2023/04/23 12:27:23;;;;;;;6.32;2.28;;;;;;;;;;5111820;28;20023;-61
2023/04/23 12:29:58;;;;;;;8.98;2.38;;;;;;;;;;5109872;28;20081;-62
2023/04/23 12:32:24;;;;;;;4.90;1.67;;;;;;;;;;5110920;28;20085;-61
2023/04/23 12:34:54;;;;;;;6.03;2.05;;;;;;;;;;5111177;28;20023;-62
2023/04/23 12:37:30;;;;;;;5.63;2.30;;;;;;;;;;5110411;28;20031;-61
2023/04/23 12:39:58;;;;;;;4.25;2.08;;;;;;;;;;5111972;28;20015;-61
2023/04/23 12:42:24;;;;;;;5.43;1.58;;;;;;;;;;5111667;28;20024;-61
2023/04/23 12:44:51;;;;;;;7.13;2.42;;;;;;;;;;5111214;28;20031;-61
2023/04/23 12:47:20;;;;;;;4.60;1.55;;;;;;;;;;5111780;28;20475;-61
2023/04/23 12:49:48;;;;;;;8.43;2.08;;;;;;;;;;5111874;28;20032;-61
2023/04/23 12:52:14;;;;;;;5.07;1.80;;;;;;;;;;5111707;28;20506;-63
2023/04/23 12:54:43;;;;;;;9.20;2.60;;;;;;;;;;5111276;28;20377;-61
2023/04/23 12:57:20;;;;;;;9.48;2.00;;;;;;;;;;5111537;28;20031;-61
2023/04/23 12:59:46;;;;;;;5.15;1.65;;;;;;;;;;5111687;28;20035;-61
2023/04/23 13:02:13;;;;;;;7.68;1.80;;;;;;;;;;5111413;28;20024;-61
2023/04/23 13:04:39;;;;;;;3.95;1.63;;;;;;;;;;5111044;28;20411;-61
2023/04/23 13:07:05;;;;;;;5.35;1.75;;;;;;;;;;5111464;28;20023;-61
2023/04/23 13:09:31;;;;;;;6.60;2.08;;;;;;;;;;5111102;28;20031;-61
2023/04/23 13:11:58;;;;;;;5.35;2.15;;;;;;;;;;5111227;28;20028;-61
2023/04/23 13:14:25;;;;;;;6.72;1.83;;;;;;;;;;5111002;28;20052;-60
2023/04/23 13:16:51;;;;;;;4.78;2.25;;;;;;;;;;5111386;28;20039;-61
2023/04/23 13:19:17;;;;;;;3.83;1.48;;;;;;;;;;5111640;28;20028;-61
2023/04/23 13:21:44;;;;;;;3.95;1.42;;;;;;;;;;5111018;28;20394;-61
2023/04/23 13:24:10;;;;;;;5.55;1.85;;;;;;;;;;5111170;28;20043;-60
2023/04/23 13:26:36;;;;;;;4.25;1.27;;;;;;;;;;5110910;28;20024;-61
2023/04/23 13:29:02;;;;;;;4.00;1.45;;;;;;;;;;5111108;28;20064;-62
2023/04/23 13:31:28;;;;;;;5.00;1.30;;;;;;;;;;5110940;28;20027;-65
2023/04/23 13:33:55;;;;;;;4.15;1.40;;;;;;;;;;5111117;28;20089;-65
2023/04/23 13:36:21;;;;;;;3.78;1.25;;;;;;;;;;5110884;28;20032;-63
2023/04/23 13:38:47;;;;;;;2.85;1.52;;;;;;;;;;5111335;28;20048;-62
2023/04/23 13:41:13;;;;;;;3.10;1.50;;;;;;;;;;5111072;28;20506;-63
2023/04/23 13:43:39;;;;;;;4.00;1.58;;;;;;;;;;5110761;28;20142;-62
2023/04/23 13:46:06;;;;;;;3.80;1.30;;;;;;;;;;5111009;28;20448;-61
2023/04/23 13:48:32;;;;;;;4.53;1.67;;;;;;;;;;5110818;28;20054;-62
2023/04/23 13:50:58;;;;;;;2.88;1.23;;;;;;;;;;5110975;28;20023;-62
2023/04/23 13:53:25;;;;;;;4.07;1.52;;;;;;;;;;5110711;28;20019;-62
2023/04/23 13:55:51;;;;;;;3.80;1.63;;;;;;;;;;5111034;28;20035;-62
2023/04/23 13:58:17;;;;;;;2.80;1.52;;;;;;;;;;5111171;28;20020;-62
2023/04/23 14:00:43;;;;;;;3.53;1.35;;;;;;;;;;5110660;28;20034;-63
2023/04/23 14:03:09;;;;;;;2.80;1.40;;;;;;;;;;5114129;28;20038;-63
2023/04/23 14:05:35;;;;;;;4.32;1.48;;;;;;;;;;5114338;28;20035;-62
2023/04/23 14:08:01;;;;;;;2.63;1.50;;;;;;;;;;5114749;28;20570;-63
2023/04/23 14:10:27;;;;;;;2.75;1.20;;;;;;;;;;5114402;28;20055;-63
2023/04/23 14:12:54;;;;;;;2.70;1.40;;;;;;;;;;5114575;28;20044;-62
2023/04/23 14:15:21;;;;;;;2.40;1.23;;;;;;;;;;5114563;28;20077;-62
2023/04/23 14:17:47;;;;;;;4.80;1.50;;;;;;;;;;5114864;28;20024;-63
2023/04/23 14:20:18;;;;;;;6.53;1.63;;;;;;;;;;5114343;28;20066;-63
2023/04/23 14:22:48;;;;;;;4.18;1.65;;;;;;;;;;5113960;28;20035;-62
2023/04/23 14:25:15;;;;;;;2.22;1.13;;;;;;;;;;5114196;28;20035;-62
2023/04/23 14:27:45;;;;;;;2.45;1.30;;;;;;;;;;5114105;28;20024;-62
2023/04/23 14:30:23;;;;;;;3.60;1.50;;;;;;;;;;5114224;28;20376;-62
2023/04/23 14:32:49;;;;;;;3.30;0.98;;;;;;;;;;5114570;28;20408;-62
2023/04/23 14:35:16;;;;;;;4.53;1.20;;;;;;;;;;5114436;28;20399;-63
2023/04/23 14:37:44;;;;;;;3.47;1.27;;;;;;;;;;5113806;28;20043;-64